Time;durP1;ratioP1;P1;durP2;ratioP2;P2;SDS_P1;SDS_P2;PMS_P1;PMS_P2;Temp;Humidity;BMP_temperature;BMP_pressure;BME280_temperature;BME280_humidity;BME280_pressure;Samples;Min_cycle;Max_cycle;Signal;HPM_P1;HPM_P2
2021/08/05 00:01:39;;;;;;;3.75;1.35;;;;;;;;;;5052236;28;20021;-42
2021/08/05 00:04:05;;;;;;;2.65;1.48;;;;;;;;;;5052042;28;20045;-42
2021/08/05 00:06:30;;;;;;;3.63;1.45;;;;;;;;;;5052217;28;20059;-42
2021/08/05 00:08:56;;;;;;;4.95;1.30;;;;;;;;;;5052124;28;20029;-42
2021/08/05 00:11:21;;;;;;;3.83;1.65;;;;;;;;;;5052061;28;20024;-42
2021/08/05 00:13:47;;;;;;;2.72;1.20;;;;;;;;;;5052598;28;20111;-42
2021/08/05 00:16:12;;;;;;;4.40;1.52;;;;;;;;;;5052132;28;20117;-43
2021/08/05 00:18:37;;;;;;;1.52;1.30;;;;;;;;;;5051889;28;20533;-42
2021/08/05 00:21:03;;;;;;;1.90;1.40;;;;;;;;;;5052200;28;20021;-42
2021/08/05 00:23:28;;;;;;;6.95;1.20;;;;;;;;;;5051819;28;20053;-42
2021/08/05 00:25:53;;;;;;;1.80;1.17;;;;;;;;;;5051950;28;20373;-42
2021/08/05 00:28:19;;;;;;;3.45;1.67;;;;;;;;;;5051986;28;20056;-42
2021/08/05 00:30:44;;;;;;;5.10;1.05;;;;;;;;;;5052103;28;20057;-42
2021/08/05 00:33:10;;;;;;;3.58;1.20;;;;;;;;;;5051127;28;20442;-42
2021/08/05 00:35:35;;;;;;;2.70;1.48;;;;;;;;;;5054418;28;20027;-42
2021/08/05 00:38:01;;;;;;;4.15;1.52;;;;;;;;;;5055466;28;20060;-42
2021/08/05 00:40:26;;;;;;;2.13;1.40;;;;;;;;;;5037710;28;20063;-42
2021/08/05 00:42:53;;;;;;;4.70;1.60;;;;;;;;;;5055584;28;20029;-42
2021/08/05 00:45:19;;;;;;;5.85;1.10;;;;;;;;;;5054012;28;20064;-43
2021/08/05 00:47:44;;;;;;;1.80;1.30;;;;;;;;;;5054189;28;20032;-42
2021/08/05 00:50:10;;;;;;;5.63;1.58;;;;;;;;;;5054151;28;20016;-42
2021/08/05 00:52:36;;;;;;;5.55;1.42;;;;;;;;;;5054020;28;20029;-43
2021/08/05 00:55:02;;;;;;;3.65;1.80;;;;;;;;;;5054042;28;20028;-42
2021/08/05 00:57:28;;;;;;;2.40;1.35;;;;;;;;;;5054050;28;20025;-42
2021/08/05 00:59:53;;;;;;;4.68;1.65;;;;;;;;;;5055487;28;20024;-44
2021/08/05 01:02:20;;;;;;;1.27;1.10;;;;;;;;;;5055481;28;20092;-42
2021/08/05 01:04:48;;;;;;;2.15;1.33;;;;;;;;;;5055121;28;20112;-42
2021/08/05 01:07:14;;;;;;;1.75;1.33;;;;;;;;;;5053716;28;20102;-42
2021/08/05 01:09:48;;;;;;;1.77;1.05;;;;;;;;;;5053759;28;20044;-42
2021/08/05 01:12:32;;;;;;;3.88;1.60;;;;;;;;;;5053589;28;20475;-42
2021/08/05 01:15:07;;;;;;;5.63;1.20;;;;;;;;;;5054903;28;20043;-42
2021/08/05 01:17:35;;;;;;;1.50;0.80;;;;;;;;;;5054817;28;20040;-42
2021/08/05 01:20:01;;;;;;;6.07;2.55;;;;;;;;;;5055040;28;20059;-42
2021/08/05 01:22:39;;;;;;;2.10;1.20;;;;;;;;;;5053340;28;20411;-42
2021/08/05 01:25:06;;;;;;;1.88;1.20;;;;;;;;;;5053714;28;20040;-42
2021/08/05 01:27:32;;;;;;;8.00;1.50;;;;;;;;;;5054840;28;20033;-42
2021/08/05 01:29:58;;;;;;;2.08;1.33;;;;;;;;;;5054804;28;20032;-42
2021/08/05 01:32:23;;;;;;;2.45;1.30;;;;;;;;;;5053349;28;20070;-42
2021/08/05 01:34:49;;;;;;;1.35;0.95;;;;;;;;;;5054572;28;20451;-42
2021/08/05 01:37:15;;;;;;;3.35;1.20;;;;;;;;;;5054451;28;20107;-42
2021/08/05 01:39:43;;;;;;;1.63;0.85;;;;;;;;;;5054685;28;20028;-42
2021/08/05 01:42:09;;;;;;;1.52;1.20;;;;;;;;;;5069826;28;20067;-42
2021/08/05 01:44:35;;;;;;;3.90;1.17;;;;;;;;;;5054044;28;20110;-42
2021/08/05 01:47:01;;;;;;;2.65;1.40;;;;;;;;;;5054091;28;20017;-42
2021/08/05 01:49:27;;;;;;;1.25;1.02;;;;;;;;;;5054253;28;20447;-42
2021/08/05 01:51:52;;;;;;;3.33;1.27;;;;;;;;;;5053003;28;20016;-42
2021/08/05 01:54:21;;;;;;;5.05;1.50;;;;;;;;;;5052912;28;20040;-42
2021/08/05 01:56:47;;;;;;;4.63;1.60;;;;;;;;;;5052799;28;20066;-44
2021/08/05 01:59:12;;;;;;;2.20;1.35;;;;;;;;;;5054626;28;20029;-42
2021/08/05 02:01:38;;;;;;;9.25;1.55;;;;;;;;;;5052888;28;20100;-42
2021/08/05 02:04:12;;;;;;;1.42;1.13;;;;;;;;;;5053851;28;20028;-42
2021/08/05 02:06:41;;;;;;;1.20;1.10;;;;;;;;;;5052753;28;20033;-42
2021/08/05 02:09:10;;;;;;;2.80;1.23;;;;;;;;;;5052514;28;20013;-42
2021/08/05 02:11:39;;;;;;;4.55;1.10;;;;;;;;;;5053900;28;20033;-42
2021/08/05 02:14:06;;;;;;;6.10;1.20;;;;;;;;;;5053817;28;20063;-42
2021/08/05 02:16:32;;;;;;;2.60;1.20;;;;;;;;;;5053984;28;20407;-43
2021/08/05 02:18:57;;;;;;;2.85;1.13;;;;;;;;;;5053681;28;20017;-42
2021/08/05 02:21:25;;;;;;;1.92;1.38;;;;;;;;;;5052389;28;20032;-42
2021/08/05 02:23:51;;;;;;;1.00;0.93;;;;;;;;;;5052195;28;20637;-42
2021/08/05 02:26:17;;;;;;;1.05;0.93;;;;;;;;;;5052194;28;20055;-42
2021/08/05 02:28:42;;;;;;;4.22;1.48;;;;;;;;;;5053531;28;20016;-42
2021/08/05 02:31:08;;;;;;;2.30;1.38;;;;;;;;;;5053692;28;20076;-42
2021/08/05 02:33:35;;;;;;;3.17;1.50;;;;;;;;;;5052192;28;20017;-42
2021/08/05 02:36:01;;;;;;;1.60;0.88;;;;;;;;;;5052165;28;20029;-42
2021/08/05 02:38:26;;;;;;;4.32;1.20;;;;;;;;;;5053351;28;20555;-42
2021/08/05 02:40:53;;;;;;;2.53;1.20;;;;;;;;;;5053302;28;20112;-42
2021/08/05 02:43:19;;;;;;;7.45;1.58;;;;;;;;;;5053520;28;20095;-42
2021/08/05 02:45:46;;;;;;;2.83;1.42;;;;;;;;;;5053480;28;20076;-42
2021/08/05 02:48:12;;;;;;;2.28;1.00;;;;;;;;;;5051847;28;20013;-42
2021/08/05 02:50:38;;;;;;;2.15;1.13;;;;;;;;;;5051992;28;20035;-42
2021/08/05 02:53:04;;;;;;;3.60;1.02;;;;;;;;;;5051692;28;20028;-42
2021/08/05 02:55:30;;;;;;;1.00;0.88;;;;;;;;;;5053129;28;20021;-42
2021/08/05 02:57:57;;;;;;;1.60;0.93;;;;;;;;;;5053260;28;20017;-42
2021/08/05 03:00:23;;;;;;;1.90;1.08;;;;;;;;;;5053112;28;20035;-43
2021/08/05 03:02:49;;;;;;;1.85;1.00;;;;;;;;;;5051560;28;20020;-42
2021/08/05 03:05:15;;;;;;;4.43;2.08;;;;;;;;;;5018320;28;20042;-42
2021/08/05 03:07:41;;;;;;;2.83;1.00;;;;;;;;;;5013159;28;20018;-42
2021/08/05 03:10:07;;;;;;;3.58;1.38;;;;;;;;;;5013156;28;20030;-42
2021/08/05 03:12:33;;;;;;;1.77;0.82;;;;;;;;;;5013446;28;20022;-42
2021/08/05 03:14:58;;;;;;;6.97;1.40;;;;;;;;;;5013061;28;20128;-42
2021/08/05 03:17:23;;;;;;;2.65;1.30;;;;;;;;;;5012865;28;20417;-42
2021/08/05 03:19:49;;;;;;;1.77;1.13;;;;;;;;;;5013332;28;20042;-42
2021/08/05 03:22:14;;;;;;;4.60;1.63;;;;;;;;;;5012893;28;20038;-42
2021/08/05 03:24:41;;;;;;;4.03;1.40;;;;;;;;;;5013220;28;20116;-42
2021/08/05 03:27:09;;;;;;;1.98;1.27;;;;;;;;;;5012729;28;20049;-43
2021/08/05 03:29:35;;;;;;;3.28;1.58;;;;;;;;;;5012725;28;20030;-42
2021/08/05 03:32:00;;;;;;;5.30;1.10;;;;;;;;;;5012813;28;20032;-42
2021/08/05 03:34:25;;;;;;;4.00;1.23;;;;;;;;;;5012778;28;20047;-43
2021/08/05 03:36:51;;;;;;;5.60;1.17;;;;;;;;;;5012824;28;20093;-42
2021/08/05 03:39:16;;;;;;;2.83;1.13;;;;;;;;;;5012883;28;20076;-43
2021/08/05 03:41:41;;;;;;;1.10;1.00;;;;;;;;;;5012687;28;20017;-43
2021/08/05 03:44:07;;;;;;;1.98;1.20;;;;;;;;;;5012616;28;20412;-42
2021/08/05 03:46:32;;;;;;;5.00;1.13;;;;;;;;;;5012687;28;20096;-42
2021/08/05 03:48:57;;;;;;;3.47;1.40;;;;;;;;;;5012860;28;20064;-43
2021/08/05 03:51:23;;;;;;;0.70;0.65;;;;;;;;;;5012554;28;20465;-42
2021/08/05 03:53:48;;;;;;;4.28;1.00;;;;;;;;;;5012864;28;20041;-42
2021/08/05 03:56:13;;;;;;;5.30;1.17;;;;;;;;;;5012767;28;20105;-42
2021/08/05 03:58:39;;;;;;;3.58;0.98;;;;;;;;;;5012545;28;20073;-42
2021/08/05 04:01:04;;;;;;;6.00;1.08;;;;;;;;;;5012433;28;20071;-42
2021/08/05 04:03:29;;;;;;;1.58;1.00;;;;;;;;;;5012499;28;20030;-42
2021/08/05 04:05:55;;;;;;;2.75;0.93;;;;;;;;;;5011416;28;20072;-42
2021/08/05 04:08:20;;;;;;;3.25;0.90;;;;;;;;;;5013374;28;20029;-42
2021/08/05 04:10:45;;;;;;;4.28;1.00;;;;;;;;;;5016398;28;20080;-43
2021/08/05 04:13:13;;;;;;;2.85;1.10;;;;;;;;;;5016341;28;20034;-42
2021/08/05 04:15:40;;;;;;;3.00;1.33;;;;;;;;;;5016389;28;20112;-42
2021/08/05 04:18:05;;;;;;;1.70;1.00;;;;;;;;;;5016423;28;20037;-42
2021/08/05 04:20:32;;;;;;;2.58;1.10;;;;;;;;;;5031562;28;20022;-43
2021/08/05 04:22:57;;;;;;;2.10;1.20;;;;;;;;;;5015888;28;20060;-42
2021/08/05 04:25:22;;;;;;;5.00;1.60;;;;;;;;;;5016280;28;20469;-41
2021/08/05 04:27:48;;;;;;;1.58;0.88;;;;;;;;;;5016059;28;20109;-42
2021/08/05 04:30:14;;;;;;;1.38;1.10;;;;;;;;;;5016353;28;20033;-42
2021/08/05 04:32:40;;;;;;;1.85;0.93;;;;;;;;;;5016297;28;20375;-42
2021/08/05 04:35:06;;;;;;;1.55;0.75;;;;;;;;;;5015996;28;20018;-42
2021/08/05 04:37:32;;;;;;;2.25;1.00;;;;;;;;;;5016299;28;20026;-42
2021/08/05 04:39:57;;;;;;;5.95;1.25;;;;;;;;;;5015844;28;20421;-42
2021/08/05 04:42:23;;;;;;;1.65;1.15;;;;;;;;;;5016144;28;20496;-42
2021/08/05 04:44:49;;;;;;;2.92;1.10;;;;;;;;;;5015837;28;20061;-42
2021/08/05 04:47:14;;;;;;;2.22;1.17;;;;;;;;;;5015653;28;20034;-42
2021/08/05 04:49:39;;;;;;;7.78;1.20;;;;;;;;;;5015790;28;20032;-42
2021/08/05 04:52:06;;;;;;;1.83;1.13;;;;;;;;;;5030903;28;20030;-42
2021/08/05 04:54:34;;;;;;;2.30;1.05;;;;;;;;;;5015773;28;20461;-42
2021/08/05 04:57:00;;;;;;;1.00;0.95;;;;;;;;;;5015676;28;20026;-42
2021/08/05 04:59:25;;;;;;;7.93;1.50;;;;;;;;;;5015758;28;20510;-42
2021/08/05 05:01:50;;;;;;;3.22;1.13;;;;;;;;;;5015544;28;20036;-42
2021/08/05 05:04:16;;;;;;;9.75;1.23;;;;;;;;;;5015617;28;20037;-42
2021/08/05 05:06:41;;;;;;;2.85;1.25;;;;;;;;;;5015474;28;20354;-42
2021/08/05 05:09:06;;;;;;;3.85;1.20;;;;;;;;;;5015163;28;20029;-42
2021/08/05 05:11:32;;;;;;;6.18;1.10;;;;;;;;;;5015321;28;20030;-42
2021/08/05 05:13:57;;;;;;;6.63;1.35;;;;;;;;;;5015273;28;20030;-42
2021/08/05 05:16:23;;;;;;;2.97;1.27;;;;;;;;;;5015119;28;20030;-42
2021/08/05 05:18:48;;;;;;;3.47;1.25;;;;;;;;;;5015167;28;20028;-42
2021/08/05 05:21:14;;;;;;;1.73;1.10;;;;;;;;;;5013619;28;20034;-41
2021/08/05 05:23:39;;;;;;;4.75;1.33;;;;;;;;;;5015056;28;20073;-42
2021/08/05 05:26:04;;;;;;;1.15;1.05;;;;;;;;;;5014975;28;20041;-43
2021/08/05 05:28:30;;;;;;;0.90;0.70;;;;;;;;;;5015236;28;20026;-41
2021/08/05 05:30:56;;;;;;;2.20;1.02;;;;;;;;;;5015243;28;20030;-46
2021/08/05 05:33:22;;;;;;;1.67;0.88;;;;;;;;;;5014875;28;20021;-42
2021/08/05 05:35:48;;;;;;;6.15;1.15;;;;;;;;;;5014896;28;20041;-42
2021/08/05 05:38:13;;;;;;;2.47;0.95;;;;;;;;;;5014773;28;20021;-42
2021/08/05 05:40:39;;;;;;;1.23;0.98;;;;;;;;;;5014887;28;20392;-42
2021/08/05 05:43:05;;;;;;;2.05;1.15;;;;;;;;;;5014613;28;20442;-42
2021/08/05 05:45:30;;;;;;;5.35;1.58;;;;;;;;;;5014901;28;20042;-43
2021/08/05 05:47:56;;;;;;;1.33;1.20;;;;;;;;;;5014673;28;20018;-43
2021/08/05 05:50:21;;;;;;;2.40;1.10;;;;;;;;;;5029325;28;20038;-42
2021/08/05 05:52:47;;;;;;;2.45;1.10;;;;;;;;;;5014578;28;20014;-42
2021/08/05 05:55:13;;;;;;;2.67;1.08;;;;;;;;;;5014486;28;20076;-42
2021/08/05 05:57:38;;;;;;;3.25;1.27;;;;;;;;;;5014367;28;20026;-43
2021/08/05 06:00:05;;;;;;;1.10;1.00;;;;;;;;;;5013991;28;20032;-42
2021/08/05 06:02:37;;;;;;;3.30;1.50;;;;;;;;;;5014418;28;20014;-43
2021/08/05 06:05:02;;;;;;;2.22;1.17;;;;;;;;;;5014197;28;20520;-42
2021/08/05 06:07:28;;;;;;;4.10;1.20;;;;;;;;;;5014318;28;20045;-42
2021/08/05 06:09:54;;;;;;;1.35;0.80;;;;;;;;;;5029269;28;20036;-42
2021/08/05 06:12:20;;;;;;;3.20;0.80;;;;;;;;;;5014158;28;20018;-42
2021/08/05 06:14:46;;;;;;;4.45;1.20;;;;;;;;;;5014151;28;20083;-43
2021/08/05 06:17:12;;;;;;;3.03;1.42;;;;;;;;;;5014252;28;20101;-42
2021/08/05 06:19:37;;;;;;;4.10;1.42;;;;;;;;;;5014321;28;20115;-42
2021/08/05 06:22:03;;;;;;;3.35;1.13;;;;;;;;;;5014006;28;20022;-42
2021/08/05 06:24:28;;;;;;;5.05;1.00;;;;;;;;;;5013987;28;20447;-41
2021/08/05 06:26:54;;;;;;;3.35;1.55;;;;;;;;;;5013947;28;20061;-42
2021/08/05 06:29:19;;;;;;;2.22;0.95;;;;;;;;;;5013715;28;20084;-42
2021/08/05 06:31:45;;;;;;;5.38;1.05;;;;;;;;;;5013863;28;20018;-42
2021/08/05 06:34:10;;;;;;;2.15;1.25;;;;;;;;;;5013753;28;20457;-41
2021/08/05 06:36:36;;;;;;;1.27;0.70;;;;;;;;;;5013843;28;20021;-42
2021/08/05 06:39:03;;;;;;;1.23;0.90;;;;;;;;;;5013659;28;20033;-42
2021/08/05 06:41:29;;;;;;;2.35;1.30;;;;;;;;;;5013852;28;20022;-42
2021/08/05 06:43:55;;;;;;;3.47;1.20;;;;;;;;;;5028762;28;20030;-42
2021/08/05 06:46:21;;;;;;;1.33;0.98;;;;;;;;;;5013551;28;20503;-42
2021/08/05 06:48:47;;;;;;;3.60;1.10;;;;;;;;;;5013550;28;20026;-42
2021/08/05 06:51:12;;;;;;;1.55;1.33;;;;;;;;;;5013761;28;20022;-42
2021/08/05 06:53:38;;;;;;;1.27;0.82;;;;;;;;;;5013379;28;20030;-42
2021/08/05 06:56:04;;;;;;;1.20;0.73;;;;;;;;;;5013308;28;20108;-42
2021/08/05 06:58:29;;;;;;;1.10;0.95;;;;;;;;;;5013302;28;20062;-42
2021/08/05 07:00:55;;;;;;;1.38;1.00;;;;;;;;;;5013614;28;20033;-41
2021/08/05 07:03:20;;;;;;;1.77;0.90;;;;;;;;;;5013526;28;20058;-43
2021/08/05 07:05:45;;;;;;;2.88;0.68;;;;;;;;;;5013230;28;20030;-42
2021/08/05 07:08:11;;;;;;;3.92;1.38;;;;;;;;;;5013388;28;20038;-42
2021/08/05 07:10:36;;;;;;;1.83;0.77;;;;;;;;;;5013495;28;20461;-42
2021/08/05 07:13:03;;;;;;;1.27;0.65;;;;;;;;;;5013444;28;20025;-42
2021/08/05 07:15:28;;;;;;;0.95;0.85;;;;;;;;;;5028237;28;20396;-42
2021/08/05 07:17:54;;;;;;;2.47;0.98;;;;;;;;;;5012996;28;20033;-42
2021/08/05 07:20:19;;;;;;;0.68;0.60;;;;;;;;;;5012981;28;20029;-43
2021/08/05 07:22:45;;;;;;;1.25;1.00;;;;;;;;;;5012816;28;20038;-42
2021/08/05 07:25:11;;;;;;;2.83;0.70;;;;;;;;;;5012810;28;20087;-43
2021/08/05 07:27:37;;;;;;;1.15;0.93;;;;;;;;;;5012825;28;20472;-42
2021/08/05 07:30:04;;;;;;;1.10;0.80;;;;;;;;;;5013103;28;20029;-45
2021/08/05 07:32:29;;;;;;;1.85;0.88;;;;;;;;;;5012857;28;20041;-42
2021/08/05 07:34:55;;;;;;;0.80;0.50;;;;;;;;;;5013156;28;20025;-42
2021/08/05 07:37:20;;;;;;;0.98;0.85;;;;;;;;;;5012558;28;20033;-43
2021/08/05 07:39:45;;;;;;;1.00;0.90;;;;;;;;;;5012755;28;20018;-42
2021/08/05 07:42:12;;;;;;;1.02;0.82;;;;;;;;;;5012838;28;20152;-42
2021/08/05 07:44:37;;;;;;;5.30;0.90;;;;;;;;;;5012286;28;20030;-42
2021/08/05 07:47:03;;;;;;;2.50;1.13;;;;;;;;;;5012608;28;20423;-42
2021/08/05 07:49:28;;;;;;;0.85;0.70;;;;;;;;;;5012938;28;20461;-42
2021/08/05 07:51:57;;;;;;;3.03;0.90;;;;;;;;;;5012612;28;20507;-42
2021/08/05 07:54:22;;;;;;;1.40;0.70;;;;;;;;;;5012510;28;20029;-42
2021/08/05 07:56:47;;;;;;;1.05;0.70;;;;;;;;;;5012504;28;20026;-42
2021/08/05 07:59:13;;;;;;;2.13;1.00;;;;;;;;;;5012419;28;20121;-42
2021/08/05 08:01:38;;;;;;;1.85;0.60;;;;;;;;;;5012605;28;20022;-42
2021/08/05 08:04:03;;;;;;;1.83;1.20;;;;;;;;;;5012641;28;20476;-43
2021/08/05 08:06:29;;;;;;;1.25;1.08;;;;;;;;;;5012454;28;20100;-42
2021/08/05 08:08:54;;;;;;;2.50;0.90;;;;;;;;;;5012720;28;20018;-42
2021/08/05 08:11:24;;;;;;;1.05;0.50;;;;;;;;;;5012637;28;20469;-42
2021/08/05 08:13:50;;;;;;;1.52;0.68;;;;;;;;;;5012366;28;20419;-42
2021/08/05 08:16:17;;;;;;;1.30;0.60;;;;;;;;;;5012373;28;20069;-42
2021/08/05 08:18:42;;;;;;;2.78;0.77;;;;;;;;;;5012701;28;20022;-42
2021/08/05 08:21:08;;;;;;;2.40;0.60;;;;;;;;;;5012491;28;20048;-42
2021/08/05 08:23:33;;;;;;;0.90;0.57;;;;;;;;;;5012241;28;20046;-41
2021/08/05 08:25:58;;;;;;;1.02;0.50;;;;;;;;;;5012585;28;20049;-42
2021/08/05 08:28:24;;;;;;;0.82;0.55;;;;;;;;;;5012397;28;20477;-42
2021/08/05 08:30:49;;;;;;;1.30;0.77;;;;;;;;;;5012608;28;20033;-41
2021/08/05 08:33:15;;;;;;;2.00;0.70;;;;;;;;;;5012155;28;20014;-42
2021/08/05 08:35:40;;;;;;;4.18;0.90;;;;;;;;;;5012186;28;20034;-42
2021/08/05 08:38:07;;;;;;;1.13;0.70;;;;;;;;;;5012204;28;20018;-42
2021/08/05 08:40:32;;;;;;;1.15;0.90;;;;;;;;;;5012417;28;20030;-43
2021/08/05 08:42:58;;;;;;;3.17;0.70;;;;;;;;;;5012173;28;20523;-42
2021/08/05 08:45:23;;;;;;;0.63;0.63;;;;;;;;;;5012040;28;20042;-42
2021/08/05 08:47:53;;;;;;;0.70;0.60;;;;;;;;;;5012363;28;20076;-43
2021/08/05 08:50:22;;;;;;;1.13;0.75;;;;;;;;;;5012339;28;20105;-42
2021/08/05 08:52:48;;;;;;;0.85;0.55;;;;;;;;;;5012099;28;20010;-42
2021/08/05 08:55:13;;;;;;;0.95;0.47;;;;;;;;;;5014383;28;20174;-42
2021/08/05 08:57:39;;;;;;;1.40;0.70;;;;;;;;;;5015634;28;20362;-42
2021/08/05 09:00:08;;;;;;;2.38;0.43;;;;;;;;;;5015573;28;20065;-42
2021/08/05 09:02:35;;;;;;;1.90;0.65;;;;;;;;;;5015577;28;20113;-42
2021/08/05 09:05:03;;;;;;;1.00;0.60;;;;;;;;;;5015720;28;20127;-42
2021/08/05 09:07:28;;;;;;;0.57;0.47;;;;;;;;;;5015626;28;20041;-42
2021/08/05 09:09:54;;;;;;;2.78;0.73;;;;;;;;;;5015771;28;20038;-42
2021/08/05 09:12:19;;;;;;;1.67;0.68;;;;;;;;;;5015201;28;20026;-42
2021/08/05 09:14:52;;;;;;;0.90;0.50;;;;;;;;;;5015370;28;20026;-42
2021/08/05 09:17:20;;;;;;;0.70;0.70;;;;;;;;;;5015027;28;20025;-42
2021/08/05 09:19:46;;;;;;;0.75;0.50;;;;;;;;;;5015268;28;20033;-42
2021/08/05 09:22:11;;;;;;;1.20;0.75;;;;;;;;;;5015053;28;20034;-42
2021/08/05 09:24:36;;;;;;;0.73;0.60;;;;;;;;;;5015207;28;20089;-42
2021/08/05 09:27:06;;;;;;;2.45;0.73;;;;;;;;;;5015139;28;20030;-42
2021/08/05 09:29:43;;;;;;;0.85;0.70;;;;;;;;;;5015058;28;20025;-42
2021/08/05 09:32:11;;;;;;;1.08;0.70;;;;;;;;;;5015210;28;20036;-42
2021/08/05 09:34:39;;;;;;;1.38;0.40;;;;;;;;;;5015325;28;20368;-42
2021/08/05 09:37:14;;;;;;;1.02;0.50;;;;;;;;;;5015153;28;20029;-42
2021/08/05 09:39:41;;;;;;;1.33;0.73;;;;;;;;;;5015007;28;20382;-41
2021/08/05 09:42:10;;;;;;;4.30;0.75;;;;;;;;;;5014971;28;20021;-42
2021/08/05 09:44:39;;;;;;;0.98;0.43;;;;;;;;;;5029863;28;20556;-43
2021/08/05 09:47:11;;;;;;;0.75;0.75;;;;;;;;;;5014959;28;20014;-42
2021/08/05 09:49:50;;;;;;;1.00;0.63;;;;;;;;;;5015003;28;20041;-42
2021/08/05 09:52:23;;;;;;;0.80;0.40;;;;;;;;;;5014510;28;20045;-43
2021/08/05 09:54:51;;;;;;;1.38;0.63;;;;;;;;;;5029909;28;20048;-41
2021/08/05 09:57:33;;;;;;;1.45;0.43;;;;;;;;;;5014420;28;20575;-42
2021/08/05 10:00:00;;;;;;;3.38;0.52;;;;;;;;;;5014716;28;20038;-43
2021/08/05 10:02:26;;;;;;;2.33;0.60;;;;;;;;;;5014363;28;20088;-41
2021/08/05 10:04:52;;;;;;;1.48;0.50;;;;;;;;;;5014359;28;20566;-43
2021/08/05 10:07:18;;;;;;;0.60;0.52;;;;;;;;;;5013618;28;20024;-41
2021/08/05 10:09:44;;;;;;;2.30;0.57;;;;;;;;;;5029357;28;20038;-43
2021/08/05 10:12:16;;;;;;;1.85;0.75;;;;;;;;;;5014250;28;20014;-42
2021/08/05 10:14:42;;;;;;;0.98;0.30;;;;;;;;;;5014521;28;20030;-42
2021/08/05 10:17:08;;;;;;;1.17;0.65;;;;;;;;;;5013952;28;20022;-42
2021/08/05 10:19:38;;;;;;;1.08;0.40;;;;;;;;;;5029386;28;20120;-41
2021/08/05 10:22:04;;;;;;;0.50;0.50;;;;;;;;;;5013861;28;20058;-42
2021/08/05 10:24:30;;;;;;;2.78;0.50;;;;;;;;;;5014187;28;20038;-42
2021/08/05 10:26:55;;;;;;;0.55;0.38;;;;;;;;;;5013961;28;20096;-42
2021/08/05 10:29:21;;;;;;;1.35;0.60;;;;;;;;;;5013522;28;20065;-41
2021/08/05 10:31:47;;;;;;;1.65;0.35;;;;;;;;;;5013686;28;20018;-42
2021/08/05 10:34:13;;;;;;;0.68;0.40;;;;;;;;;;5013849;28;20038;-42
2021/08/05 10:36:39;;;;;;;2.78;0.40;;;;;;;;;;5013695;28;20018;-42
2021/08/05 10:39:04;;;;;;;0.38;0.30;;;;;;;;;;5013760;28;20555;-41
2021/08/05 10:41:31;;;;;;;0.50;0.43;;;;;;;;;;5013595;28;20026;-42
2021/08/05 10:43:58;;;;;;;1.00;0.52;;;;;;;;;;5013900;28;20037;-41
2021/08/05 10:46:24;;;;;;;2.10;0.55;;;;;;;;;;5013546;28;20056;-42
2021/08/05 10:48:49;;;;;;;0.68;0.40;;;;;;;;;;5013778;28;20069;-42
2021/08/05 10:51:15;;;;;;;1.35;0.40;;;;;;;;;;5013778;28;20108;-42
2021/08/05 10:53:44;;;;;;;0.65;0.40;;;;;;;;;;5013785;28;20080;-42
2021/08/05 10:56:16;;;;;;;4.53;0.38;;;;;;;;;;5013302;28;20465;-42
2021/08/05 10:59:01;;;;;;;0.77;0.55;;;;;;;;;;5013687;28;20432;-42
2021/08/05 11:01:46;;;;;;;0.38;0.28;;;;;;;;;;5013399;28;20692;-42
2021/08/05 11:04:30;;;;;;;2.58;0.73;;;;;;;;;;5013141;28;20385;-42
2021/08/05 11:06:55;;;;;;;1.10;0.30;;;;;;;;;;5013476;28;20030;-42
2021/08/05 11:09:25;;;;;;;1.85;0.65;;;;;;;;;;5013446;28;20370;-41
2021/08/05 11:11:51;;;;;;;1.20;0.50;;;;;;;;;;5013217;28;20026;-43
2021/08/05 11:14:16;;;;;;;0.82;0.63;;;;;;;;;;5028304;28;20377;-42
2021/08/05 11:16:51;;;;;;;0.63;0.60;;;;;;;;;;5013378;28;20034;-42
2021/08/05 11:19:19;;;;;;;0.85;0.40;;;;;;;;;;5012054;28;20034;-42
2021/08/05 11:21:44;;;;;;;0.30;0.30;;;;;;;;;;5012971;28;20487;-43
2021/08/05 11:24:10;;;;;;;1.17;0.57;;;;;;;;;;5012866;28;20025;-42
2021/08/05 11:26:55;;;;;;;2.35;0.45;;;;;;;;;;5012897;28;20434;-42
2021/08/05 11:29:28;;;;;;;2.05;0.40;;;;;;;;;;5012790;28;20080;-42
2021/08/05 11:31:55;;;;;;;0.35;0.35;;;;;;;;;;5013141;28;20034;-42
2021/08/05 11:34:20;;;;;;;0.88;0.40;;;;;;;;;;5028069;28;20026;-42
2021/08/05 11:36:46;;;;;;;1.13;0.40;;;;;;;;;;5013049;28;20037;-42
2021/08/05 11:39:20;;;;;;;1.33;0.30;;;;;;;;;;5012691;28;20017;-42
2021/08/05 11:41:53;;;;;;;0.57;0.50;;;;;;;;;;5013060;28;20026;-42
2021/08/05 11:44:30;;;;;;;0.63;0.35;;;;;;;;;;5012308;28;20385;-42
2021/08/05 11:47:14;;;;;;;2.33;0.63;;;;;;;;;;5012882;28;20392;-42
2021/08/05 11:49:56;;;;;;;1.20;0.32;;;;;;;;;;5012729;28;20113;-42
2021/08/05 11:52:24;;;;;;;5.35;0.30;;;;;;;;;;5012863;28;20124;-42
2021/08/05 11:55:02;;;;;;;0.88;0.30;;;;;;;;;;5012592;28;20053;-43
2021/08/05 11:57:33;;;;;;;0.30;0.22;;;;;;;;;;5012707;28;20034;-42
2021/08/05 11:59:58;;;;;;;9.13;0.50;;;;;;;;;;5012817;28;20365;-42
2021/08/05 12:02:25;;;;;;;0.30;0.30;;;;;;;;;;5012825;28;20029;-42
2021/08/05 12:04:51;;;;;;;0.65;0.30;;;;;;;;;;5027952;28;20203;-42
2021/08/05 12:07:28;;;;;;;0.70;0.40;;;;;;;;;;5012553;28;20018;-42
2021/08/05 12:09:53;;;;;;;0.32;0.28;;;;;;;;;;5012605;28;20451;-42
2021/08/05 12:12:19;;;;;;;0.32;0.32;;;;;;;;;;5012414;28;20046;-42
2021/08/05 12:14:53;;;;;;;0.20;0.20;;;;;;;;;;5012417;28;20030;-42
2021/08/05 12:17:42;;;;;;;1.75;0.55;;;;;;;;;;5012513;28;20030;-42
2021/08/05 12:20:18;;;;;;;0.55;0.30;;;;;;;;;;5012682;28;20029;-42
2021/08/05 12:22:46;;;;;;;0.50;0.40;;;;;;;;;;5012335;28;20515;-42
2021/08/05 12:25:26;;;;;;;0.95;0.20;;;;;;;;;;5012203;28;20121;-42
2021/08/05 12:27:55;;;;;;;1.38;0.40;;;;;;;;;;5012294;28;20109;-42
2021/08/05 12:30:21;;;;;;;0.45;0.28;;;;;;;;;;5014652;28;20022;-42
2021/08/05 12:32:56;;;;;;;0.15;0.15;;;;;;;;;;5016464;28;20033;-42
2021/08/05 12:35:21;;;;;;;1.08;0.47;;;;;;;;;;5015952;28;20481;-42
2021/08/05 12:38:19;;;;;;;0.20;0.20;;;;;;;;;;5015943;28;20053;-42
2021/08/05 12:40:46;;;;;;;0.32;0.20;;;;;;;;;;5009136;28;20089;-42
2021/08/05 12:43:12;;;;;;;0.40;0.40;;;;;;;;;;5014612;28;20129;-42
2021/08/05 12:45:39;;;;;;;0.28;0.28;;;;;;;;;;5016085;28;20125;-42
2021/08/05 12:48:05;;;;;;;0.75;0.30;;;;;;;;;;5015822;28;20032;-42
2021/08/05 12:50:31;;;;;;;1.20;0.43;;;;;;;;;;5015629;28;20026;-42
2021/08/05 12:52:57;;;;;;;0.32;0.30;;;;;;;;;;5015766;28;20068;-42
2021/08/05 12:55:22;;;;;;;5.45;0.63;;;;;;;;;;5015942;28;20033;-42
2021/08/05 12:57:52;;;;;;;1.02;0.28;;;;;;;;;;5015551;28;20018;-42
2021/08/05 13:00:30;;;;;;;0.50;0.30;;;;;;;;;;5015816;28;20439;-42
2021/08/05 13:03:00;;;;;;;0.22;0.20;;;;;;;;;;5015578;28;20026;-42
2021/08/05 13:05:26;;;;;;;0.55;0.30;;;;;;;;;;5015608;28;20042;-42
2021/08/05 13:07:52;;;;;;;0.63;0.38;;;;;;;;;;5015776;28;20038;-42
2021/08/05 13:10:20;;;;;;;0.50;0.30;;;;;;;;;;5015691;28;20060;-42
2021/08/05 13:12:49;;;;;;;1.17;0.30;;;;;;;;;;5015331;28;20077;-42
2021/08/05 13:15:27;;;;;;;0.70;0.28;;;;;;;;;;5015288;28;20112;-41
2021/08/05 13:17:53;;;;;;;0.57;0.35;;;;;;;;;;5015562;28;20025;-42
2021/08/05 13:20:21;;;;;;;0.10;0.10;;;;;;;;;;5015405;28;20468;-42
2021/08/05 13:22:48;;;;;;;0.22;0.22;;;;;;;;;;5015102;28;20497;-42
2021/08/05 13:25:15;;;;;;;3.65;0.38;;;;;;;;;;5014932;28;20038;-42
2021/08/05 13:27:43;;;;;;;2.47;0.73;;;;;;;;;;5015085;28;20041;-42
2021/08/05 13:30:12;;;;;;;0.10;0.10;;;;;;;;;;5015328;28;20018;-42
2021/08/05 13:32:42;;;;;;;0.30;0.30;;;;;;;;;;5015260;28;20034;-41
2021/08/05 13:35:09;;;;;;;0.30;0.30;;;;;;;;;;5014960;28;20034;-42
2021/08/05 13:37:38;;;;;;;0.60;0.30;;;;;;;;;;5014948;28;20431;-42
2021/08/05 13:40:22;;;;;;;1.65;0.28;;;;;;;;;;5014805;28;20014;-42
2021/08/05 13:42:48;;;;;;;1.40;0.50;;;;;;;;;;5014622;28;20026;-42
2021/08/05 13:45:13;;;;;;;1.40;0.35;;;;;;;;;;5014946;28;20168;-42
2021/08/05 13:47:39;;;;;;;0.35;0.20;;;;;;;;;;5014656;28;20033;-42
2021/08/05 13:50:11;;;;;;;0.30;0.30;;;;;;;;;;5014717;28;20029;-43
2021/08/05 13:52:37;;;;;;;0.55;0.40;;;;;;;;;;5014714;28;20045;-42
2021/08/05 13:55:02;;;;;;;0.43;0.38;;;;;;;;;;5014556;28;20025;-41
2021/08/05 13:57:28;;;;;;;0.80;0.30;;;;;;;;;;5014735;28;20030;-42
2021/08/05 13:59:53;;;;;;;0.50;0.40;;;;;;;;;;5014891;28;20018;-43
2021/08/05 14:02:18;;;;;;;0.50;0.30;;;;;;;;;;5014632;28;20029;-42
2021/08/05 14:04:44;;;;;;;0.17;0.17;;;;;;;;;;5014656;28;20116;-42
2021/08/05 14:07:09;;;;;;;0.88;0.60;;;;;;;;;;5014202;28;20272;-42
2021/08/05 14:09:35;;;;;;;0.30;0.30;;;;;;;;;;5014285;28;20022;-42
2021/08/05 14:12:01;;;;;;;0.63;0.32;;;;;;;;;;5014563;28;20117;-41
2021/08/05 14:14:26;;;;;;;0.40;0.38;;;;;;;;;;5014217;28;20018;-43
2021/08/05 14:16:52;;;;;;;3.65;0.40;;;;;;;;;;5014180;28;20380;-42
2021/08/05 14:19:18;;;;;;;0.35;0.30;;;;;;;;;;5014108;28;20029;-42
2021/08/05 14:21:45;;;;;;;0.70;0.50;;;;;;;;;;5014231;28;20413;-42
2021/08/05 14:24:11;;;;;;;0.30;0.28;;;;;;;;;;5013853;28;20485;-42
2021/08/05 14:26:36;;;;;;;0.50;0.40;;;;;;;;;;5012727;28;20041;-42
2021/08/05 14:29:02;;;;;;;0.60;0.47;;;;;;;;;;5014269;28;20029;-42
2021/08/05 14:31:27;;;;;;;0.80;0.40;;;;;;;;;;5013801;28;20030;-42
2021/08/05 14:33:53;;;;;;;0.57;0.45;;;;;;;;;;5014196;28;20022;-42
2021/08/05 14:36:19;;;;;;;0.28;0.28;;;;;;;;;;5013724;28;20468;-42
2021/08/05 14:38:44;;;;;;;0.40;0.30;;;;;;;;;;5013766;28;20029;-43
2021/08/05 14:41:10;;;;;;;0.38;0.30;;;;;;;;;;5013786;28;20076;-43
2021/08/05 14:43:35;;;;;;;0.52;0.47;;;;;;;;;;5013916;28;20520;-42